createdAt,value
2022-12-13T00:01:31.969Z,28.80
2022-12-13T00:04:01.676Z,31.77
2022-12-13T00:06:29.271Z,27.37
2022-12-13T00:08:55.871Z,27.73
2022-12-13T00:11:22.800Z,24.90
2022-12-13T00:13:49.580Z,27.30
2022-12-13T00:16:24.313Z,26.20
2022-12-13T00:18:55.410Z,28.40
2022-12-13T00:21:26.470Z,27.93
2022-12-13T00:23:53.415Z,28.73
2022-12-13T00:26:25.780Z,31.30
2022-12-13T00:28:54.029Z,27.07
2022-12-13T00:34:10.327Z,28.73
2022-12-13T00:36:37.081Z,29.50
2022-12-13T00:39:04.010Z,27.20
2022-12-13T00:41:33.819Z,31.10
2022-12-13T00:44:02.257Z,28.07
2022-12-13T00:46:29.703Z,28.67
2022-12-13T00:48:59.061Z,29.47
2022-12-13T00:51:27.442Z,27.47
2022-12-13T00:53:54.154Z,29.13
2022-12-13T00:56:25.489Z,28.27
2022-12-13T00:58:53.029Z,29.33
2022-12-13T01:01:27.561Z,28.30
2022-12-13T01:03:56.677Z,29.97
2022-12-13T01:06:44.891Z,28.10
2022-12-13T01:09:20.812Z,30.57
2022-12-13T01:11:48.864Z,27.97
2022-12-13T01:14:17.596Z,27.93
2022-12-13T01:16:44.791Z,31.10
2022-12-13T01:19:11.543Z,27.63
2022-12-13T01:21:38.391Z,26.93
2022-12-13T01:24:06.890Z,29.93
2022-12-13T01:26:34.898Z,29.37
2022-12-13T01:29:05.550Z,26.40
2022-12-13T01:31:33.936Z,30.27
2022-12-13T01:34:00.625Z,27.57
2022-12-13T01:36:28.431Z,28.53
2022-12-13T01:38:58.592Z,26.63
2022-12-13T01:41:27.180Z,29.90
2022-12-13T01:44:18.255Z,27.07
2022-12-13T01:46:44.854Z,28.13
2022-12-13T01:49:19.569Z,28.53
2022-12-13T01:51:52.803Z,32.63
2022-12-13T01:54:25.236Z,30.80
2022-12-13T01:57:03.349Z,31.50
2022-12-13T01:59:30.086Z,31.17
2022-12-13T02:02:00.842Z,33.77
2022-12-13T02:04:43.914Z,30.47
2022-12-13T02:07:22.924Z,30.20
2022-12-13T02:09:57.378Z,37.50
2022-12-13T02:12:30.379Z,36.93
2022-12-13T02:15:01.235Z,32.67
2022-12-13T02:17:44.817Z,42.30
2022-12-13T02:20:40.637Z,43.97
2022-12-13T02:23:32.490Z,35.60
2022-12-13T02:26:13.472Z,36.40
2022-12-13T02:29:01.666Z,72.13
2022-12-13T02:32:05.806Z,32.27
2022-12-13T02:34:39.883Z,35.33
2022-12-13T02:37:22.577Z,34.20
2022-12-13T02:39:54.282Z,33.37
2022-12-13T02:42:35.328Z,30.83
2022-12-13T02:45:20.106Z,30.03
2022-12-13T02:47:49.729Z,31.13
2022-12-13T02:50:16.906Z,28.90
2022-12-13T02:52:46.623Z,27.27
2022-12-13T02:55:16.609Z,30.00
2022-12-13T02:57:45.432Z,28.27
2022-12-13T03:00:21.719Z,24.60
2022-12-13T03:03:06.693Z,26.30
2022-12-13T03:06:00.978Z,25.97
2022-12-13T03:08:34.738Z,27.87
2022-12-13T03:11:18.893Z,27.00
2022-12-13T03:13:56.584Z,27.57
2022-12-13T03:16:31.186Z,23.17
2022-12-13T03:19:00.762Z,25.37
2022-12-13T03:21:28.280Z,26.43
2022-12-13T03:23:54.964Z,27.53
2022-12-13T03:26:25.187Z,23.70
2022-12-13T03:28:53.071Z,25.67
2022-12-13T03:31:19.995Z,27.47
2022-12-13T03:33:46.895Z,24.87
2022-12-13T03:36:14.055Z,22.67
2022-12-13T03:38:41.135Z,24.97
2022-12-13T03:41:13.875Z,24.03
2022-12-13T03:43:40.654Z,26.60
2022-12-13T03:46:08.378Z,26.07
2022-12-13T03:48:35.079Z,21.73
2022-12-13T03:51:02.794Z,25.03
2022-12-13T03:53:33.742Z,26.23
2022-12-13T03:56:03.753Z,25.97
2022-12-13T03:58:36.616Z,25.73
2022-12-13T04:01:15.857Z,22.93
2022-12-13T04:03:44.593Z,24.90
2022-12-13T04:06:11.830Z,26.43
2022-12-13T04:08:39.184Z,25.97
2022-12-13T04:11:25.176Z,26.17
2022-12-13T04:13:55.399Z,25.17
2022-12-13T04:16:23.112Z,25.70
2022-12-13T04:18:50.406Z,25.10
2022-12-13T04:21:17.019Z,24.93
2022-12-13T04:23:43.669Z,23.40
2022-12-13T04:26:10.406Z,24.27
2022-12-13T04:28:38.218Z,23.10
2022-12-13T04:31:05.081Z,24.07
2022-12-13T04:33:32.823Z,23.07
2022-12-13T04:35:59.947Z,24.53
2022-12-13T04:38:26.722Z,24.80
2022-12-13T04:40:53.337Z,25.10
2022-12-13T04:43:19.909Z,26.70
2022-12-13T04:45:46.596Z,23.57
2022-12-13T04:48:13.802Z,24.77
2022-12-13T04:51:01.266Z,23.77
2022-12-13T04:53:30.013Z,21.90
2022-12-13T04:55:56.734Z,23.47
2022-12-13T04:58:23.375Z,23.23
2022-12-13T05:00:50.093Z,25.20
2022-12-13T05:03:16.692Z,26.10
2022-12-13T05:05:43.302Z,26.23
2022-12-13T05:08:10.013Z,24.60
2022-12-13T05:10:38.273Z,25.63
2022-12-13T05:13:05.457Z,24.73
2022-12-13T05:15:32.368Z,26.50
2022-12-13T05:18:01.831Z,27.07
2022-12-13T05:20:38.447Z,25.00
2022-12-13T05:23:05.009Z,23.13
2022-12-13T05:25:33.347Z,23.90
2022-12-13T05:27:59.938Z,25.20
2022-12-13T05:30:26.546Z,24.60
2022-12-13T05:32:53.105Z,27.07
2022-12-13T05:35:22.501Z,25.33
2022-12-13T05:37:53.673Z,22.70
2022-12-13T05:40:26.693Z,25.20
2022-12-13T05:43:01.380Z,26.93
2022-12-13T05:45:31.124Z,21.97
2022-12-13T05:47:58.244Z,24.53
2022-12-13T05:50:25.676Z,26.40
2022-12-13T05:52:52.523Z,26.83
2022-12-13T05:55:19.915Z,22.23
2022-12-13T05:57:50.427Z,27.60
2022-12-13T06:00:28.871Z,25.20
2022-12-13T06:02:57.457Z,26.03
2022-12-13T06:05:28.819Z,27.27
2022-12-13T06:07:57.450Z,25.53
2022-12-13T06:10:24.638Z,27.67
2022-12-13T06:12:51.217Z,26.47
2022-12-13T06:15:21.713Z,24.63
2022-12-13T06:17:48.770Z,24.87
2022-12-13T06:20:23.384Z,24.60
2022-12-13T06:22:52.390Z,25.03
2022-12-13T06:25:30.779Z,25.63
2022-12-13T06:28:00.856Z,25.00
2022-12-13T06:30:29.033Z,26.23
2022-12-13T06:32:55.984Z,26.17
2022-12-13T06:35:27.951Z,28.17
2022-12-13T06:38:01.551Z,26.27
2022-12-13T06:40:30.552Z,23.63
2022-12-13T06:42:57.699Z,22.77
2022-12-13T06:45:24.949Z,27.60
2022-12-13T06:47:51.513Z,25.00
2022-12-13T06:50:18.096Z,26.07
2022-12-13T06:52:46.648Z,27.53
2022-12-13T06:55:13.621Z,27.27
2022-12-13T06:57:40.720Z,28.77
2022-12-13T07:00:09.447Z,23.43
2022-12-13T07:02:36.376Z,25.07
2022-12-13T07:05:03.032Z,24.63
2022-12-13T07:07:29.940Z,24.90
2022-12-13T07:09:56.721Z,26.83
2022-12-13T07:12:23.540Z,25.30
2022-12-13T07:14:50.477Z,24.83
2022-12-13T07:17:32.969Z,24.23
2022-12-13T07:20:08.105Z,26.50
2022-12-13T07:22:38.801Z,24.90
2022-12-13T07:25:26.703Z,28.00
2022-12-13T07:28:02.274Z,24.60
2022-12-13T07:30:31.200Z,24.50
2022-12-13T07:32:58.155Z,27.60
2022-12-13T07:35:24.757Z,24.47
2022-12-13T07:37:51.315Z,23.33
2022-12-13T07:40:17.905Z,25.07
2022-12-13T07:42:51.258Z,25.70
2022-12-13T07:45:18.571Z,23.63
2022-12-13T07:47:45.338Z,23.80
2022-12-13T07:50:24.269Z,25.27
2022-12-13T07:52:53.378Z,23.37
2022-12-13T07:55:23.129Z,24.63
2022-12-13T07:58:07.597Z,25.17
2022-12-13T08:00:35.059Z,22.63
2022-12-13T08:03:02.173Z,24.43
2022-12-13T08:05:29.264Z,26.03
2022-12-13T08:08:08.014Z,23.67
2022-12-13T08:10:34.836Z,26.00
2022-12-13T08:13:04.943Z,23.47
2022-12-13T08:15:31.673Z,25.13
2022-12-13T08:18:00.799Z,23.00
2022-12-13T08:20:27.634Z,18.87
2022-12-13T08:22:55.748Z,20.40
2022-12-13T08:25:29.573Z,22.53
2022-12-13T08:27:56.254Z,21.03
2022-12-13T08:30:29.655Z,22.13
2022-12-13T08:32:56.204Z,23.83
2022-12-13T08:35:22.778Z,21.30
2022-12-13T08:37:49.365Z,23.47
2022-12-13T08:40:16.142Z,21.67
2022-12-13T08:42:43.757Z,22.03
2022-12-13T08:45:10.895Z,19.47
2022-12-13T08:47:41.782Z,22.77
2022-12-13T08:50:08.935Z,19.00
2022-12-13T08:52:40.355Z,18.80
2022-12-13T08:55:12.528Z,22.80
2022-12-13T08:57:40.779Z,19.17
2022-12-13T09:00:11.386Z,19.83
2022-12-13T09:02:38.895Z,18.60
2022-12-13T09:05:07.711Z,19.30
2022-12-13T09:07:40.963Z,20.03
2022-12-13T09:10:27.192Z,20.33
2022-12-13T09:13:01.443Z,16.80
2022-12-13T09:15:34.617Z,19.03
2022-12-13T09:18:04.243Z,17.90
2022-12-13T09:20:41.142Z,20.77
2022-12-13T09:23:14.273Z,17.50
2022-12-13T09:26:05.929Z,17.23
2022-12-13T09:28:34.780Z,15.80
2022-12-13T09:31:01.433Z,17.87
2022-12-13T09:33:30.507Z,17.47
2022-12-13T09:35:58.233Z,16.33
2022-12-13T09:38:27.996Z,17.03
2022-12-13T09:40:59.189Z,14.47
2022-12-13T09:43:33.141Z,18.97
2022-12-13T09:46:22.756Z,16.37
2022-12-13T09:48:53.607Z,17.87
2022-12-13T09:51:44.030Z,15.57
2022-12-13T09:54:19.590Z,17.23
2022-12-13T09:56:50.921Z,16.00
2022-12-13T09:59:32.352Z,17.33
2022-12-13T10:02:14.674Z,16.47
2022-12-13T10:04:41.558Z,14.60
2022-12-13T10:07:28.422Z,16.50
2022-12-13T10:10:00.801Z,14.60
2022-12-13T10:12:28.611Z,16.07
2022-12-13T10:15:00.058Z,16.23
2022-12-13T10:17:31.865Z,12.77
2022-12-13T10:20:07.067Z,15.93
2022-12-13T10:22:33.709Z,14.10
2022-12-13T10:25:05.404Z,15.43
2022-12-13T10:27:40.365Z,15.50
2022-12-13T10:30:12.863Z,14.90
2022-12-13T10:32:48.438Z,15.10
2022-12-13T10:35:23.991Z,15.53
2022-12-13T10:37:50.890Z,14.27
2022-12-13T10:40:33.133Z,16.60
2022-12-13T10:43:17.192Z,13.23
2022-12-13T10:45:57.132Z,14.43
2022-12-13T10:48:24.974Z,14.20
2022-12-13T10:51:20.090Z,15.80
2022-12-13T10:54:00.644Z,14.87
2022-12-13T10:56:43.567Z,12.30
2022-12-13T10:59:36.331Z,12.20
2022-12-13T11:02:31.120Z,13.67
2022-12-13T11:04:59.276Z,13.63
2022-12-13T11:07:29.970Z,13.60
2022-12-13T11:10:05.455Z,12.67
2022-12-13T11:12:33.055Z,13.97
2022-12-13T11:15:07.610Z,11.50
2022-12-13T11:17:50.226Z,14.87
2022-12-13T11:20:24.928Z,12.53
2022-12-13T11:23:02.396Z,12.10
2022-12-13T11:25:41.352Z,12.37
2022-12-13T11:28:27.647Z,14.30
2022-12-13T11:31:20.642Z,13.10
2022-12-13T11:34:10.389Z,11.07
2022-12-13T11:36:55.756Z,10.37
2022-12-13T11:39:29.198Z,11.70
2022-12-13T11:41:55.798Z,10.93
2022-12-13T11:44:34.001Z,11.90
2022-12-13T11:47:01.748Z,10.70
2022-12-13T11:49:41.625Z,11.97
2022-12-13T11:52:44.715Z,14.53
2022-12-13T11:55:44.615Z,12.20
2022-12-13T11:59:03.597Z,11.27
2022-12-13T12:01:43.944Z,11.50
2022-12-13T12:04:31.495Z,11.37
2022-12-13T12:07:31.042Z,12.10
2022-12-13T12:10:03.291Z,11.10
2022-12-13T12:12:35.425Z,11.90
2022-12-13T12:15:26.590Z,12.13
2022-12-13T12:17:55.884Z,10.53
2022-12-13T12:20:36.467Z,12.83
2022-12-13T12:23:32.075Z,11.47
2022-12-13T12:26:09.081Z,10.93
2022-12-13T12:29:06.159Z,13.53
2022-12-13T12:32:12.100Z,12.20
2022-12-13T12:35:10.408Z,11.00
2022-12-13T12:37:59.267Z,11.23
2022-12-13T12:41:07.139Z,10.93
2022-12-13T12:43:21.578Z,13.57
2022-12-13T12:46:22.870Z,12.03
2022-12-13T12:49:24.892Z,11.27
2022-12-13T12:51:59.609Z,10.60
2022-12-13T12:54:35.233Z,11.57
2022-12-13T12:57:20.162Z,10.67
2022-12-13T13:00:01.704Z,11.57
2022-12-13T13:03:05.249Z,13.27
2022-12-13T13:05:43.790Z,10.13
2022-12-13T13:08:32.852Z,11.17
2022-12-13T13:11:02.066Z,11.13
2022-12-13T13:13:50.435Z,10.47
2022-12-13T13:16:35.565Z,11.07
2022-12-13T13:19:30.894Z,10.50
2022-12-13T13:22:01.746Z,11.77
2022-12-13T13:24:30.539Z,10.77
2022-12-13T13:27:10.183Z,9.77
2022-12-13T13:29:43.099Z,10.63
2022-12-13T13:32:12.640Z,9.83
2022-12-13T13:35:36.056Z,10.70
2022-12-13T13:38:24.315Z,10.07
2022-12-13T13:40:51.518Z,7.73
2022-12-13T13:43:32.485Z,10.03
2022-12-13T13:46:10.838Z,7.70
2022-12-13T13:49:11.616Z,8.23
2022-12-13T13:55:21.202Z,8.50
2022-12-13T13:58:10.464Z,13.00
2022-12-13T14:01:15.101Z,10.93
2022-12-13T14:04:24.297Z,7.50
2022-12-13T14:07:06.310Z,8.80
2022-12-13T14:09:41.870Z,9.63
2022-12-13T14:12:30.004Z,8.97
2022-12-13T14:15:21.185Z,12.60
2022-12-13T14:18:06.289Z,8.87
2022-12-13T14:20:53.649Z,8.73
2022-12-13T14:23:53.412Z,11.23
2022-12-13T14:26:32.943Z,9.53
2022-12-13T14:29:02.732Z,8.27
2022-12-13T14:31:44.702Z,9.97
2022-12-13T14:34:31.426Z,10.57
2022-12-13T14:37:05.968Z,9.03
2022-12-13T14:39:36.766Z,10.70
2022-12-13T14:42:23.750Z,10.33
2022-12-13T14:44:50.775Z,11.23
2022-12-13T14:47:18.949Z,11.27
2022-12-13T14:49:50.699Z,9.00
2022-12-13T14:52:26.207Z,9.20
2022-12-13T14:54:59.664Z,11.87
2022-12-13T14:57:29.595Z,10.83
2022-12-13T14:59:59.130Z,15.87
2022-12-13T15:02:32.259Z,11.37
2022-12-13T15:05:01.842Z,11.40
2022-12-13T15:07:30.972Z,11.10
2022-12-13T15:10:00.821Z,10.70
2022-12-13T15:12:29.980Z,10.10
2022-12-13T15:15:02.390Z,9.80
2022-12-13T15:17:37.733Z,10.53
2022-12-13T15:20:28.720Z,11.83
2022-12-13T15:23:02.989Z,11.23
2022-12-13T15:25:33.981Z,13.37
2022-12-13T15:28:01.169Z,11.60
2022-12-13T15:30:31.954Z,10.90
2022-12-13T15:33:07.844Z,11.50
2022-12-13T15:35:37.002Z,10.23
2022-12-13T15:38:04.482Z,11.83
2022-12-13T15:40:31.556Z,13.43
2022-12-13T15:42:58.447Z,11.47
2022-12-13T15:45:31.767Z,9.73
2022-12-13T15:48:04.489Z,10.80
2022-12-13T15:50:43.738Z,11.43
2022-12-13T15:53:25.795Z,11.23
2022-12-13T15:55:52.809Z,11.03
2022-12-13T15:58:35.170Z,13.77
2022-12-13T16:01:05.434Z,12.70
2022-12-13T16:03:44.261Z,11.97
2022-12-13T16:06:18.757Z,11.87
2022-12-13T16:08:51.089Z,11.67
2022-12-13T16:11:38.429Z,12.37
2022-12-13T16:14:26.601Z,12.03
2022-12-13T16:16:55.335Z,10.77
2022-12-13T16:19:22.078Z,10.50
2022-12-13T16:21:48.663Z,13.37
2022-12-13T16:24:15.831Z,14.67
2022-12-13T16:26:48.009Z,11.30
2022-12-13T16:29:21.650Z,11.97
2022-12-13T16:31:48.928Z,12.37
2022-12-13T16:34:18.149Z,13.00
2022-12-13T16:36:47.471Z,12.20
2022-12-13T16:39:14.927Z,13.17
2022-12-13T16:41:44.854Z,13.33
2022-12-13T16:44:21.896Z,11.90
2022-12-13T16:47:12.088Z,12.90
2022-12-13T16:49:35.480Z,12.30
2022-12-13T16:52:03.071Z,14.83
2022-12-13T16:54:29.639Z,13.47
2022-12-13T16:56:56.326Z,13.97
2022-12-13T16:59:26.414Z,14.23
2022-12-13T17:01:53.504Z,9.97
2022-12-13T17:04:27.457Z,11.33
2022-12-13T17:06:54.652Z,11.13
2022-12-13T17:09:23.194Z,12.53
2022-12-13T17:11:49.763Z,12.20
2022-12-13T17:14:16.344Z,12.27
2022-12-13T17:16:43.063Z,10.07
2022-12-13T17:19:11.654Z,11.53
2022-12-13T17:21:38.292Z,13.93
2022-12-13T17:24:05.028Z,13.53
2022-12-13T17:26:32.689Z,13.47
2022-12-13T17:28:59.512Z,11.13
2022-12-13T17:31:29.261Z,12.07
2022-12-13T17:34:02.733Z,11.60
2022-12-13T17:36:31.332Z,10.93
2022-12-13T17:38:58.112Z,11.23
2022-12-13T17:41:24.894Z,11.73
2022-12-13T17:43:51.492Z,11.00
2022-12-13T17:46:19.336Z,10.33
2022-12-13T17:48:46.687Z,11.23
2022-12-13T17:51:14.184Z,12.23
2022-12-13T17:53:42.702Z,12.33
2022-12-13T17:56:12.287Z,9.87
2022-12-13T17:58:40.122Z,16.37
2022-12-13T18:01:14.681Z,11.57
2022-12-13T18:03:41.482Z,9.10
2022-12-13T18:06:09.236Z,10.83
2022-12-13T18:08:40.464Z,13.10
2022-12-13T18:11:32.225Z,10.87
2022-12-13T18:13:56.134Z,12.43
2022-12-13T18:16:28.952Z,10.93
2022-12-13T18:19:00.849Z,11.47
2022-12-13T18:21:27.718Z,11.13
2022-12-13T18:23:56.138Z,11.90
2022-12-13T18:26:24.179Z,11.57
2022-12-13T18:28:51.342Z,11.87
2022-12-13T18:31:20.626Z,12.50
2022-12-13T18:33:49.673Z,11.77
2022-12-13T18:36:18.442Z,11.27
2022-12-13T18:38:45.198Z,10.60
2022-12-13T18:41:15.373Z,11.57
2022-12-13T18:43:43.384Z,12.33
2022-12-13T18:46:11.478Z,11.97
2022-12-13T18:48:38.385Z,9.77
2022-12-13T18:51:08.671Z,10.30
2022-12-13T18:53:37.188Z,13.53
2022-12-13T18:56:06.347Z,11.10
2022-12-13T18:58:33.999Z,10.73
2022-12-13T19:01:00.722Z,12.93
2022-12-13T19:03:27.713Z,10.73
2022-12-13T19:05:58.367Z,10.83
2022-12-13T19:08:26.413Z,10.67
2022-12-13T19:10:59.435Z,10.87
2022-12-13T19:13:28.327Z,10.37
2022-12-13T19:15:59.163Z,11.20
2022-12-13T19:18:30.886Z,9.47
2022-12-13T19:20:58.727Z,12.10
2022-12-13T19:23:25.581Z,12.37
2022-12-13T19:25:52.503Z,9.53
2022-12-13T19:28:19.179Z,12.33
2022-12-13T19:30:47.723Z,11.07
2022-12-13T19:33:15.009Z,10.37
2022-12-13T19:35:45.418Z,11.53
2022-12-13T19:38:12.338Z,12.13
2022-12-13T19:40:42.987Z,12.00
2022-12-13T19:43:11.481Z,10.17
2022-12-13T19:45:38.510Z,10.77
2022-12-13T19:48:05.184Z,9.70
2022-12-13T19:50:31.971Z,10.57
2022-12-13T19:52:58.572Z,11.63
2022-12-13T19:55:25.193Z,10.77
2022-12-13T19:57:51.770Z,11.97
2022-12-13T20:00:18.447Z,13.07
2022-12-13T20:02:45.152Z,11.77
2022-12-13T20:05:11.807Z,12.13
2022-12-13T20:07:38.454Z,11.80
2022-12-13T20:10:05.867Z,13.93
2022-12-13T20:12:38.853Z,12.50
2022-12-13T20:15:08.096Z,10.43
2022-12-13T20:17:35.581Z,13.03
2022-12-13T20:20:02.755Z,12.67
2022-12-13T20:22:29.497Z,12.80
2022-12-13T20:24:56.079Z,11.07
2022-12-13T20:27:22.787Z,13.50
2022-12-13T20:29:50.098Z,11.83
2022-12-13T20:32:17.085Z,13.17
2022-12-13T20:34:43.700Z,11.13
2022-12-13T20:37:10.554Z,12.77
2022-12-13T20:39:37.137Z,12.30
2022-12-13T20:42:03.818Z,15.03
2022-12-13T20:44:30.512Z,12.97
2022-12-13T20:46:57.217Z,12.93
2022-12-13T20:49:23.843Z,12.73
2022-12-13T20:51:51.781Z,15.20
2022-12-13T20:54:19.430Z,14.10
2022-12-13T20:56:46.018Z,10.30
2022-12-13T20:59:14.292Z,13.20
2022-12-13T21:01:42.287Z,11.20
2022-12-13T21:04:10.920Z,14.17
2022-12-13T21:06:40.711Z,12.67
2022-12-13T21:09:09.329Z,14.10
2022-12-13T21:11:42.354Z,12.30
2022-12-13T21:14:22.846Z,13.47
2022-12-13T21:16:56.723Z,13.27
2022-12-13T21:19:25.603Z,10.53
2022-12-13T21:21:54.108Z,11.60
2022-12-13T21:24:22.310Z,12.27
2022-12-13T21:26:51.152Z,13.93
2022-12-13T21:29:19.078Z,12.40
2022-12-13T21:31:48.662Z,9.63
2022-12-13T21:34:16.707Z,12.73
2022-12-13T21:36:47.214Z,10.80
2022-12-13T21:39:20.141Z,11.23
2022-12-13T21:41:46.882Z,14.03
2022-12-13T21:44:15.666Z,12.50
2022-12-13T21:49:29.727Z,13.03
2022-12-13T21:51:57.092Z,14.07
2022-12-13T21:54:23.734Z,9.63
2022-12-13T21:57:08.583Z,10.80
2022-12-13T21:59:35.261Z,10.90
2022-12-13T22:02:20.417Z,13.40
2022-12-13T22:04:55.507Z,12.50
2022-12-13T22:07:31.126Z,12.47
2022-12-13T22:09:59.072Z,10.83
2022-12-13T22:12:36.066Z,11.67
2022-12-13T22:15:04.645Z,12.63
2022-12-13T22:17:35.677Z,9.23
2022-12-13T22:20:05.245Z,10.73
2022-12-13T22:22:31.990Z,11.77
2022-12-13T22:24:58.581Z,12.90
2022-12-13T22:27:25.938Z,11.90
2022-12-13T22:29:56.689Z,10.23
2022-12-13T22:32:25.226Z,11.70
2022-12-13T22:34:51.791Z,10.33
2022-12-13T22:37:18.475Z,8.37
2022-12-13T22:39:45.129Z,11.20
2022-12-13T22:42:11.725Z,13.33
2022-12-13T22:44:38.405Z,11.37
2022-12-13T22:47:05.000Z,10.53
2022-12-13T22:49:31.605Z,11.90
2022-12-13T22:51:58.247Z,12.47
2022-12-13T22:54:24.835Z,10.33
2022-12-13T22:56:52.471Z,8.40
2022-12-13T22:59:19.266Z,8.33
2022-12-13T23:01:47.244Z,10.10
2022-12-13T23:04:15.277Z,10.07
2022-12-13T23:06:41.980Z,9.03
2022-12-13T23:09:12.585Z,9.67
2022-12-13T23:11:57.957Z,10.00
2022-12-13T23:14:33.960Z,11.10
2022-12-13T23:17:01.729Z,8.83
2022-12-13T23:19:41.583Z,10.40
2022-12-13T23:22:15.871Z,11.37
2022-12-13T23:24:42.731Z,12.63
2022-12-13T23:27:09.560Z,9.83
2022-12-13T23:29:36.223Z,8.87
2022-12-13T23:32:02.817Z,11.13
2022-12-13T23:34:29.415Z,10.00
2022-12-13T23:36:55.982Z,9.87
2022-12-13T23:39:22.589Z,9.47
2022-12-13T23:41:49.185Z,10.30
2022-12-13T23:44:15.969Z,9.70
2022-12-13T23:46:48.110Z,9.50
2022-12-13T23:49:16.113Z,9.60
2022-12-13T23:51:42.773Z,8.50
2022-12-13T23:54:14.609Z,12.20
2022-12-13T23:56:41.283Z,10.83
2022-12-13T23:59:07.879Z,9.83
